San Lorenzo, CA (94580)

9:27 PM PDT on July 30, 2016 (GMT -0700)
Washington and Grant | | Change Station

Elev 13 ft 37.68 °N, 122.14 °W | Updated 4 minutes ago

Clear
Clear
59.4 °F
Feels Like 59.4 °F
N
5.3
Wind Variable Wind from ESE

Today
High -- | Low -- °F
--% Chance of Precip.
Yesterday
High -- | Low -- °F
Precip. -- in
Pressure 29.84 in
Visibility 10.0 miles
Clouds Clear
Dew Point 54 °F
Humidity 82%
Rainfall 0.00 in
Snow Depth Not available.
6:11 AM 8:18 PM
Waning Crescent, 9% visible
METAR KHWD 310354Z 34009KT 10SM CLR 17/11 A2982 RMK AO2 SLP105 T01670106
Pressure 29.84 in
Visibility 10.0 miles
Clouds Clear
Dew Point 54 °F
Humidity 82%
Rainfall 0.00 in
Snow Depth Not available.
6:11 AM 8:18 PM
Waning Crescent, 9% visible
METAR KHWD 310354Z 34009KT 10SM CLR 17/11 A2982 RMK AO2 SLP105 T01670106

10-Day Weather Forecast

Almanac

Astronomy

Jul. 30, 2016 Rise Set
Actual Time
Civil Twilight
Nautical Twilight
Astronomical Twilight
Moon
Length of Visible Light
Length of Day
Tomorrow will be .
, % of the Moon is Illuminated

Today's Extremes

State Highs State Lows

Community

WunderPhotos

Upload Photos

1,928,751 photos uploaded!

WunderBlog® & News

Nearby

Air Quality

  Air Quality AQ Index Pollutant
Not available.

Snow Depth

Station Depth Elevation

Earthquake Activity

City Distance Mag. Time & Date
Minimum magnitude displayed is 2.5.

Coastal Water Temperatures

Place Temperature

Stations

Nearby Weather Stations

Station Location Temp. Windchill Dew Point Humidity Wind Precip. Elev Updated Type
                   

Watches & Warnings

There are currently no watches in effect.